Time;durP1;ratioP1;P1;durP2;ratioP2;P2;SDS_P1;SDS_P2;PMS_P1;PMS_P2;Temp;Humidity;BMP_temperature;BMP_pressure;BME280_temperature;BME280_humidity;BME280_pressure;Samples;Min_cycle;Max_cycle;Signal;HPM_P1;HPM_P2
2023/11/02 00:01:52;;;;;;;2.00;1.03;;;9.70;99.90;;;;;;5044777;28;20210;-56
2023/11/02 00:04:19;;;;;;;1.60;0.90;;;9.50;99.90;;;;;;5043581;28;20225;-56
2023/11/02 00:06:49;;;;;;;2.07;0.80;;;9.40;99.90;;;;;;5041699;28;20215;-57
2023/11/02 00:09:39;;;;;;;1.60;1.07;;;9.30;99.90;;;;;;5042244;28;20241;-57
2023/11/02 00:12:11;;;;;;;2.00;1.37;;;9.40;99.90;;;;;;5044779;28;20687;-57
2023/11/02 00:14:44;;;;;;;1.53;1.10;;;9.40;99.90;;;;;;5033382;28;20642;-56
2023/11/02 00:17:55;;;;;;;4.90;1.10;;;9.30;99.90;;;;;;5041532;28;20206;-56
2023/11/02 00:20:34;;;;;;;1.90;0.80;;;9.30;99.90;;;;;;5040828;28;20291;-55
2023/11/02 00:23:02;;;;;;;3.13;0.90;;;9.20;99.90;;;;;;5044244;28;20232;-55
2023/11/02 00:25:45;;;;;;;4.90;1.13;;;9.10;99.90;;;;;;5042228;28;20690;-56
2023/11/02 00:28:14;;;;;;;1.40;1.13;;;9.00;99.90;;;;;;5041260;28;20742;-56
2023/11/02 00:30:44;;;;;;;3.00;1.83;;;9.00;99.90;;;;;;5043752;28;20202;-58
2023/11/02 00:33:12;;;;;;;3.27;1.30;;;9.00;99.90;;;;;;5044289;28;20267;-56
2023/11/02 00:35:43;;;;;;;1.67;1.30;;;9.00;99.90;;;;;;5033235;28;20676;-56
2023/11/02 00:38:10;;;;;;;2.23;1.53;;;8.80;99.90;;;;;;5041478;28;20214;-56
2023/11/02 00:40:37;;;;;;;2.07;1.13;;;8.80;99.90;;;;;;5044384;28;20218;-56
2023/11/02 00:43:04;;;;;;;3.13;1.60;;;8.80;99.90;;;;;;5044197;28;20295;-55
2023/11/02 00:45:34;;;;;;;2.30;1.20;;;8.80;99.90;;;;;;5041721;28;20237;-55
2023/11/02 00:48:00;;;;;;;2.77;1.30;;;8.80;99.90;;;;;;5040739;28;20214;-56
2023/11/02 00:51:02;;;;;;;2.97;1.40;;;8.80;99.90;;;;;;5042984;28;20224;-56
2023/11/02 00:53:29;;;;;;;3.63;2.03;;;8.80;99.90;;;;;;5041693;28;20244;-57
2023/11/02 00:55:56;;;;;;;2.57;1.20;;;8.80;99.90;;;;;;5040976;28;20302;-56
2023/11/02 00:58:28;;;;;;;4.50;1.20;;;8.80;99.90;;;;;;5041651;28;20210;-57
2023/11/02 01:01:05;;;;;;;3.10;1.10;;;8.80;99.90;;;;;;5044144;28;20253;-56
2023/11/02 01:03:33;;;;;;;1.90;1.13;;;8.80;99.90;;;;;;5041390;28;20576;-56
2023/11/02 01:06:01;;;;;;;2.40;0.90;;;8.70;99.90;;;;;;5040666;28;20214;-57
2023/11/02 01:08:31;;;;;;;3.63;1.50;;;8.80;99.90;;;;;;5042267;28;20214;-56
2023/11/02 01:10:57;;;;;;;2.30;1.30;;;8.90;99.90;;;;;;5043558;28;20264;-56
2023/11/02 01:13:25;;;;;;;1.47;1.20;;;8.90;99.90;;;;;;5041937;28;20234;-55
2023/11/02 01:16:07;;;;;;;2.33;1.20;;;8.90;99.90;;;;;;5040400;28;20217;-56
2023/11/02 01:18:34;;;;;;;1.50;1.40;;;9.00;99.90;;;;;;5043071;28;20219;-55
2023/11/02 01:21:03;;;;;;;2.97;1.10;;;9.00;99.90;;;;;;5043713;28;20621;-55
2023/11/02 01:23:30;;;;;;;2.53;1.00;;;9.00;99.90;;;;;;5041268;28;20257;-56
2023/11/02 01:25:57;;;;;;;1.40;1.10;;;9.00;99.90;;;;;;5040463;28;20209;-56
2023/11/02 01:28:45;;;;;;;1.10;0.73;;;9.00;99.90;;;;;;5041436;28;20214;-56
2023/11/02 01:31:16;;;;;;;2.03;0.67;;;9.10;99.90;;;;;;5043228;28;20197;-56
2023/11/02 01:34:04;;;;;;;1.20;1.00;;;9.20;99.90;;;;;;5043377;28;20312;-56
2023/11/02 01:36:35;;;;;;;1.10;1.00;;;9.20;99.90;;;;;;5041113;28;20893;-56
2023/11/02 01:39:28;;;;;;;1.30;0.93;;;9.20;99.90;;;;;;5040106;28;20209;-56
2023/11/02 01:42:05;;;;;;;1.87;1.10;;;9.30;99.90;;;;;;5033490;28;20214;-56
2023/11/02 01:44:41;;;;;;;0.93;0.80;;;9.30;99.90;;;;;;5042190;28;20297;-57
2023/11/02 01:47:20;;;;;;;1.50;0.73;;;9.20;99.90;;;;;;5043561;28;20212;-58
2023/11/02 01:49:56;;;;;;;1.77;1.40;;;9.20;99.90;;;;;;5032835;28;20730;-56
2023/11/02 01:52:37;;;;;;;0.97;0.60;;;9.20;99.90;;;;;;5040635;28;20316;-56
2023/11/02 01:55:15;;;;;;;2.80;0.80;;;9.20;99.90;;;;;;5043266;28;20201;-55
2023/11/02 01:57:49;;;;;;;1.87;0.80;;;9.20;99.90;;;;;;5031945;28;20213;-56
2023/11/02 02:00:17;;;;;;;1.10;0.60;;;9.40;99.90;;;;;;5039704;28;20650;-56
2023/11/02 02:02:52;;;;;;;3.20;1.30;;;9.50;99.90;;;;;;5042824;28;20221;-55
2023/11/02 02:05:26;;;;;;;4.00;0.80;;;9.50;99.90;;;;;;5042187;28;20687;-56
2023/11/02 02:08:03;;;;;;;1.50;0.80;;;9.70;99.90;;;;;;5039879;28;20618;-56
2023/11/02 02:10:48;;;;;;;1.10;0.80;;;9.80;99.90;;;;;;5041640;28;20233;-56
2023/11/02 02:13:27;;;;;;;1.40;0.70;;;9.80;99.90;;;;;;5042873;28;20229;-56
2023/11/02 02:16:05;;;;;;;1.30;0.73;;;9.90;99.90;;;;;;5039604;28;20206;-56
2023/11/02 02:18:39;;;;;;;1.47;0.83;;;9.90;99.90;;;;;;5041619;28;20205;-55
2023/11/02 02:21:10;;;;;;;1.87;0.80;;;10.00;99.90;;;;;;5042761;28;20217;-57
2023/11/02 02:23:46;;;;;;;3.40;0.70;;;10.10;99.90;;;;;;5039451;28;20313;-56
2023/11/02 02:26:37;;;;;;;1.50;0.90;;;10.10;99.90;;;;;;5039222;28;20213;-56
2023/11/02 02:29:29;;;;;;;2.13;0.80;;;10.10;99.90;;;;;;5034545;28;20233;-56
2023/11/02 02:32:14;;;;;;;1.10;0.63;;;10.10;99.90;;;;;;5032729;28;20206;-55
2023/11/02 02:35:00;;;;;;;1.77;0.90;;;10.10;99.90;;;;;;5031336;28;20225;-56
2023/11/02 02:37:32;;;;;;;1.87;0.70;;;10.10;99.90;;;;;;5040807;28;20206;-57
2023/11/02 02:40:08;;;;;;;3.00;0.90;;;10.10;99.90;;;;;;5042562;28;20265;-55
2023/11/02 02:42:37;;;;;;;1.67;0.70;;;10.20;99.90;;;;;;5039587;28;20240;-56
2023/11/02 02:45:09;;;;;;;1.97;0.80;;;10.10;99.90;;;;;;5039509;28;20217;-55
2023/11/02 02:47:37;;;;;;;2.63;0.90;;;10.20;99.90;;;;;;5041669;28;20598;-56
2023/11/02 02:50:09;;;;;;;1.57;1.07;;;10.30;99.90;;;;;;5042469;28;20289;-56
2023/11/02 02:52:38;;;;;;;2.20;1.00;;;10.40;99.90;;;;;;5039393;28;20226;-55
2023/11/02 02:55:08;;;;;;;2.13;0.77;;;10.40;99.90;;;;;;5041961;28;20206;-56
2023/11/02 02:57:37;;;;;;;2.57;0.90;;;10.50;99.90;;;;;;5045424;28;20454;-56
2023/11/02 03:00:05;;;;;;;1.77;1.17;;;10.50;99.90;;;;;;5046452;28;20248;-56
2023/11/02 03:02:33;;;;;;;1.70;1.00;;;10.50;99.90;;;;;;5044005;28;20718;-56
2023/11/02 03:05:00;;;;;;;2.30;1.20;;;10.50;99.90;;;;;;5043026;28;20262;-55
2023/11/02 03:07:31;;;;;;;1.73;0.93;;;10.50;99.90;;;;;;5044145;28;20210;-56
2023/11/02 03:10:01;;;;;;;1.97;0.93;;;10.50;99.90;;;;;;5046067;28;20198;-55
2023/11/02 03:12:30;;;;;;;2.43;1.00;;;10.60;99.90;;;;;;5044216;28;20328;-56
2023/11/02 03:15:01;;;;;;;1.83;0.80;;;10.60;99.90;;;;;;5042580;28;20213;-56
2023/11/02 03:17:41;;;;;;;1.53;0.90;;;10.70;99.90;;;;;;5044140;28;20231;-57
2023/11/02 03:20:10;;;;;;;1.13;0.70;;;10.80;99.90;;;;;;5046066;28;20229;-56
2023/11/02 03:22:41;;;;;;;1.73;0.90;;;10.80;99.90;;;;;;5043193;28;20225;-55
2023/11/02 03:25:10;;;;;;;2.33;0.90;;;10.90;99.90;;;;;;5042664;28;20213;-55
2023/11/02 03:27:56;;;;;;;2.27;1.03;;;10.90;99.90;;;;;;5045057;28;20213;-55
2023/11/02 03:30:30;;;;;;;1.47;0.80;;;10.90;99.90;;;;;;5044935;28;20202;-55
2023/11/02 03:33:07;;;;;;;2.23;0.90;;;10.90;99.90;;;;;;5042362;28;20287;-56
2023/11/02 03:35:41;;;;;;;1.47;0.80;;;10.80;99.90;;;;;;5044762;28;20627;-56
2023/11/02 03:38:18;;;;;;;2.70;1.00;;;10.70;99.90;;;;;;5045469;28;20642;-55
2023/11/02 03:41:03;;;;;;;2.07;1.17;;;10.80;99.90;;;;;;5034382;28;20229;-56
2023/11/02 03:43:42;;;;;;;4.73;1.20;;;11.00;99.90;;;;;;5043647;28;20226;-56
2023/11/02 03:46:19;;;;;;;1.03;0.93;;;11.00;99.90;;;;;;5045649;28;20213;-56
2023/11/02 03:48:51;;;;;;;1.33;0.97;;;11.00;99.90;;;;;;5034411;28;20217;-56
2023/11/02 03:51:37;;;;;;;3.03;1.20;;;11.10;99.90;;;;;;5042208;28;20206;-55
2023/11/02 03:54:35;;;;;;;2.30;0.97;;;11.10;99.90;;;;;;5036824;28;20226;-55
2023/11/02 03:57:12;;;;;;;1.93;1.10;;;11.20;99.90;;;;;;5036364;28;20217;-56
2023/11/02 03:59:48;;;;;;;2.60;1.20;;;11.10;99.90;;;;;;5044589;28;20201;-55
2023/11/02 04:02:22;;;;;;;2.10;1.30;;;10.90;99.90;;;;;;5044725;28;20671;-56
2023/11/02 04:04:53;;;;;;;2.03;1.20;;;10.90;99.90;;;;;;5033590;28;20657;-56
2023/11/02 04:07:26;;;;;;;4.33;1.40;;;10.90;99.90;;;;;;5041152;28;20213;-55
2023/11/02 04:09:59;;;;;;;1.80;1.10;;;11.00;99.90;;;;;;5045081;28;20216;-56
2023/11/02 04:12:33;;;;;;;1.47;0.97;;;11.20;99.90;;;;;;5043291;28;20687;-56
2023/11/02 04:15:01;;;;;;;1.67;0.97;;;11.40;99.90;;;;;;5041992;28;20293;-57
2023/11/02 04:17:28;;;;;;;2.07;1.10;;;11.40;99.90;;;;;;5042690;28;20731;-57
2023/11/02 04:19:55;;;;;;;1.33;0.97;;;11.50;99.90;;;;;;5044726;28;20202;-57
2023/11/02 04:22:22;;;;;;;1.33;0.93;;;11.60;99.90;;;;;;5043888;28;20748;-57
2023/11/02 04:24:49;;;;;;;1.20;1.10;;;11.60;99.90;;;;;;5041426;28;20238;-57
2023/11/02 04:27:17;;;;;;;3.10;1.10;;;11.40;99.90;;;;;;5041404;28;20221;-59
2023/11/02 04:29:44;;;;;;;3.13;1.40;;;11.30;99.90;;;;;;5041060;28;20214;-57
2023/11/02 04:32:10;;;;;;;2.57;1.43;;;11.30;99.90;;;;;;5041521;28;20210;-57
2023/11/02 04:34:37;;;;;;;2.00;1.50;;;11.10;99.90;;;;;;5043470;28;20210;-57
2023/11/02 04:37:13;;;;;;;2.03;1.50;;;10.90;99.90;;;;;;5044446;28;20210;-57
2023/11/02 04:39:40;;;;;;;2.47;1.57;;;10.80;99.90;;;;;;5041607;28;20248;-57
2023/11/02 04:42:07;;;;;;;2.70;1.40;;;10.60;99.90;;;;;;5040801;28;20230;-57
2023/11/02 04:44:35;;;;;;;2.07;1.30;;;10.50;99.90;;;;;;5042989;28;20210;-57
2023/11/02 04:47:02;;;;;;;1.73;1.23;;;10.50;99.90;;;;;;5044579;28;20213;-57
2023/11/02 04:49:28;;;;;;;2.63;1.50;;;10.40;99.90;;;;;;5042847;28;20591;-57
2023/11/02 04:51:56;;;;;;;5.07;2.40;;;10.40;99.90;;;;;;5040561;28;20567;-57
2023/11/02 04:54:26;;;;;;;4.10;1.57;;;10.40;99.90;;;;;;5041373;28;20243;-57
2023/11/02 04:56:52;;;;;;;2.33;1.60;;;10.40;99.90;;;;;;5044152;28;20228;-57
2023/11/02 04:59:19;;;;;;;1.97;1.57;;;10.40;99.90;;;;;;5043982;28;20213;-56
2023/11/02 05:01:48;;;;;;;2.47;1.40;;;10.40;99.90;;;;;;5032312;28;20229;-57
2023/11/02 05:04:14;;;;;;;3.47;2.30;;;10.40;99.90;;;;;;5040482;28;20226;-57
2023/11/02 05:06:41;;;;;;;2.27;1.43;;;10.40;99.90;;;;;;5043488;28;20618;-57
2023/11/02 05:09:08;;;;;;;3.80;1.40;;;10.40;99.90;;;;;;5044396;28;20227;-57
2023/11/02 05:11:35;;;;;;;2.30;1.47;;;10.40;99.90;;;;;;5041540;28;20573;-57
2023/11/02 05:14:02;;;;;;;1.73;1.33;;;10.50;99.90;;;;;;5040099;28;20612;-57
2023/11/02 05:16:28;;;;;;;3.70;1.53;;;10.60;99.90;;;;;;5040708;28;20277;-56
2023/11/02 05:18:56;;;;;;;2.87;1.47;;;10.70;99.90;;;;;;5043598;28;20229;-57
2023/11/02 05:21:23;;;;;;;2.13;1.20;;;10.90;99.90;;;;;;5042587;28;20600;-58
2023/11/02 05:23:50;;;;;;;5.03;1.80;;;10.90;99.90;;;;;;5040220;28;20589;-56
2023/11/02 05:26:16;;;;;;;1.93;0.90;;;11.10;99.90;;;;;;5040178;28;20589;-57
2023/11/02 05:28:43;;;;;;;1.87;1.00;;;11.10;99.90;;;;;;5043008;28;20214;-57
2023/11/02 05:31:10;;;;;;;1.67;1.17;;;11.20;99.90;;;;;;5043572;28;20201;-57
2023/11/02 05:33:37;;;;;;;1.10;1.00;;;11.40;99.90;;;;;;5040882;28;20233;-58
2023/11/02 05:36:07;;;;;;;3.50;1.23;;;11.40;99.90;;;;;;5040043;28;20241;-57
2023/11/02 05:38:33;;;;;;;2.10;1.20;;;11.30;99.90;;;;;;5041586;28;20202;-57
2023/11/02 05:41:00;;;;;;;2.63;1.00;;;11.40;99.90;;;;;;5043081;28;20218;-57
2023/11/02 05:43:27;;;;;;;1.87;0.90;;;11.40;99.90;;;;;;5042114;28;20612;-57
2023/11/02 05:45:53;;;;;;;1.73;0.90;;;11.40;99.90;;;;;;5039600;28;20656;-57
2023/11/02 05:48:21;;;;;;;1.60;1.00;;;11.40;99.90;;;;;;5039854;28;20256;-57
2023/11/02 05:50:48;;;;;;;2.20;1.03;;;11.40;99.90;;;;;;5032082;28;20271;-57
2023/11/02 05:53:16;;;;;;;1.83;0.83;;;11.30;99.90;;;;;;5039368;28;20218;-57
2023/11/02 05:55:43;;;;;;;3.10;1.00;;;11.30;99.90;;;;;;5042320;28;20671;-57
2023/11/02 05:58:09;;;;;;;3.93;1.60;;;11.20;99.90;;;;;;5042797;28;20671;-57
2023/11/02 06:00:37;;;;;;;1.30;0.80;;;11.20;99.90;;;;;;5040556;28;20197;-57
2023/11/02 06:03:04;;;;;;;1.73;0.90;;;11.30;99.90;;;;;;5039247;28;20226;-57
2023/11/02 06:05:31;;;;;;;4.30;1.20;;;11.30;99.90;;;;;;5040791;28;20230;-56
2023/11/02 06:07:57;;;;;;;1.07;0.90;;;11.40;99.90;;;;;;5042797;28;20202;-57
2023/11/02 06:10:25;;;;;;;1.37;1.00;;;11.30;99.90;;;;;;5042271;28;20212;-57
2023/11/02 06:12:52;;;;;;;1.23;0.90;;;11.40;99.90;;;;;;5038886;28;20230;-59
2023/11/02 06:15:19;;;;;;;1.33;1.07;;;11.40;99.90;;;;;;5039394;28;20214;-57
2023/11/02 06:17:45;;;;;;;1.43;0.97;;;11.50;99.90;;;;;;5042526;28;20202;-57
2023/11/02 06:20:13;;;;;;;2.43;0.80;;;11.50;99.90;;;;;;5042707;28;20206;-57
2023/11/02 06:22:40;;;;;;;1.27;0.70;;;11.60;99.90;;;;;;5039895;28;20251;-57
2023/11/02 06:25:08;;;;;;;1.60;0.77;;;11.80;99.90;;;;;;5039381;28;20281;-57
2023/11/02 06:27:36;;;;;;;2.67;0.80;;;11.90;99.90;;;;;;5040592;28;20652;-58
2023/11/02 06:30:02;;;;;;;2.37;1.03;;;12.20;99.90;;;;;;5042119;28;20197;-57
2023/11/02 06:32:29;;;;;;;2.77;0.87;;;12.40;99.90;;;;;;5041265;28;20226;-57
2023/11/02 06:34:56;;;;;;;3.90;1.13;;;12.40;99.90;;;;;;5039355;28;20210;-57
2023/11/02 06:37:23;;;;;;;2.47;0.93;;;12.50;99.90;;;;;;5038941;28;20206;-57
2023/11/02 06:39:49;;;;;;;2.57;1.10;;;12.60;99.90;;;;;;5042468;28;20229;-57
2023/11/02 06:42:16;;;;;;;1.70;0.70;;;12.70;99.90;;;;;;5041985;28;20217;-59
2023/11/02 06:44:44;;;;;;;1.70;0.80;;;12.80;99.90;;;;;;5039915;28;22400;-57
2023/11/02 06:47:11;;;;;;;2.67;1.20;;;12.90;99.90;;;;;;5039089;28;20209;-58
2023/11/02 06:49:38;;;;;;;2.30;1.00;;;13.00;99.90;;;;;;5040998;28;20213;-58
2023/11/02 06:52:05;;;;;;;4.63;1.27;;;13.10;99.90;;;;;;5041919;28;20206;-59
2023/11/02 06:54:32;;;;;;;2.37;1.10;;;13.00;99.90;;;;;;5040990;28;20682;-57
2023/11/02 06:56:59;;;;;;;5.20;1.37;;;12.90;99.90;;;;;;5039440;28;20210;-57
2023/11/02 06:59:25;;;;;;;5.40;1.50;;;12.70;99.90;;;;;;5038925;28;20210;-58
2023/11/02 07:01:54;;;;;;;2.10;1.17;;;12.50;99.90;;;;;;5042230;28;20229;-57
2023/11/02 07:04:21;;;;;;;2.87;1.43;;;12.40;99.90;;;;;;5042448;28;20221;-58
2023/11/02 07:06:48;;;;;;;3.33;1.60;;;12.30;99.90;;;;;;5038901;28;20209;-57
2023/11/02 07:09:15;;;;;;;3.33;1.40;;;12.30;99.90;;;;;;5038920;28;20297;-58
2023/11/02 07:11:42;;;;;;;4.17;1.70;;;12.40;99.90;;;;;;5041122;28;20613;-57
2023/11/02 07:14:09;;;;;;;2.13;1.27;;;12.20;99.90;;;;;;5042115;28;20230;-59
2023/11/02 07:16:36;;;;;;;2.37;1.67;;;12.10;99.90;;;;;;5040404;28;20300;-57
2023/11/02 07:19:04;;;;;;;2.43;1.03;;;12.00;99.90;;;;;;5038688;28;20206;-58
2023/11/02 07:21:31;;;;;;;1.83;1.30;;;12.00;99.90;;;;;;5039523;28;20226;-59
2023/11/02 07:23:57;;;;;;;2.00;1.40;;;12.20;99.90;;;;;;5041874;28;20711;-58
2023/11/02 07:26:24;;;;;;;2.40;1.00;;;11.90;99.90;;;;;;5042124;28;20214;-55
2023/11/02 07:28:51;;;;;;;2.67;1.20;;;11.90;99.90;;;;;;5038672;28;20209;-57
2023/11/02 07:31:17;;;;;;;1.90;1.20;;;11.90;99.90;;;;;;5038659;28;20203;-56
2023/11/02 07:33:44;;;;;;;2.13;1.27;;;11.80;99.90;;;;;;5040896;28;20296;-56
2023/11/02 07:36:16;;;;;;;1.90;1.27;;;11.80;99.90;;;;;;5042097;28;20206;-56
2023/11/02 07:38:43;;;;;;;3.40;1.50;;;11.70;99.90;;;;;;5039250;28;20210;-57
2023/11/02 07:41:10;;;;;;;2.43;1.40;;;11.70;99.90;;;;;;5040986;28;20231;-56
2023/11/02 07:43:36;;;;;;;1.93;1.30;;;11.50;99.90;;;;;;5043855;28;20222;-57
2023/11/02 07:46:03;;;;;;;5.13;1.40;;;11.30;99.90;;;;;;5045419;28;20205;-56
2023/11/02 07:48:30;;;;;;;2.33;0.93;;;11.20;99.90;;;;;;5044695;28;20284;-55
2023/11/02 07:50:57;;;;;;;2.60;1.30;;;11.00;99.90;;;;;;5042307;28;20205;-55
2023/11/02 07:53:25;;;;;;;2.53;1.40;;;11.00;99.90;;;;;;5042087;28;20233;-55
2023/11/02 07:55:51;;;;;;;5.27;2.13;;;11.00;99.90;;;;;;5034173;28;20203;-55
2023/11/02 07:58:18;;;;;;;2.27;1.10;;;11.00;99.90;;;;;;5042104;28;20202;-55
2023/11/02 08:00:45;;;;;;;2.63;1.00;;;10.90;99.90;;;;;;5044373;28;20207;-55
2023/11/02 08:03:12;;;;;;;1.67;1.00;;;10.80;99.90;;;;;;5044717;28;20225;-55
2023/11/02 08:05:39;;;;;;;5.70;1.60;;;10.80;99.90;;;;;;5042752;28;20224;-55
2023/11/02 08:08:05;;;;;;;1.57;1.10;;;10.80;99.90;;;;;;5041786;28;20206;-55
2023/11/02 08:10:34;;;;;;;1.33;1.00;;;10.80;99.90;;;;;;5042696;28;20210;-56
2023/11/02 08:13:01;;;;;;;1.73;1.20;;;10.70;99.90;;;;;;5044668;28;20257;-55
2023/11/02 08:15:28;;;;;;;2.77;1.20;;;10.70;99.90;;;;;;5044363;28;20209;-55
2023/11/02 08:17:55;;;;;;;1.87;1.00;;;10.90;99.90;;;;;;5041181;28;20207;-55
2023/11/02 08:20:23;;;;;;;22.43;13.07;;;10.90;99.90;;;;;;5041218;28;20668;-56
2023/11/02 08:22:49;;;;;;;9.30;6.07;;;11.00;99.90;;;;;;5044134;28;20257;-56
2023/11/02 08:25:17;;;;;;;2.27;1.20;;;11.10;99.90;;;;;;5044636;28;20197;-56
2023/11/02 08:27:47;;;;;;;2.47;1.00;;;11.30;99.90;;;;;;5042136;28;20293;-54
2023/11/02 08:30:15;;;;;;;0.93;0.73;;;11.30;99.90;;;;;;5041082;28;20257;-55
2023/11/02 08:32:43;;;;;;;1.60;1.00;;;11.40;99.90;;;;;;5042863;28;20254;-55
2023/11/02 08:35:10;;;;;;;2.37;1.30;;;11.60;99.90;;;;;;5044650;28;20206;-55
2023/11/02 08:37:36;;;;;;;2.33;0.73;;;11.50;99.90;;;;;;5042936;28;20209;-56
2023/11/02 08:40:05;;;;;;;1.70;1.00;;;11.60;99.90;;;;;;5041026;28;20558;-58
2023/11/02 08:42:32;;;;;;;1.33;0.83;;;11.60;99.90;;;;;;5041364;28;20332;-55
2023/11/02 08:45:00;;;;;;;1.10;0.83;;;11.60;99.90;;;;;;5044181;28;20250;-56
2023/11/02 08:47:27;;;;;;;2.00;0.87;;;11.70;99.90;;;;;;5044025;28;20280;-56
2023/11/02 08:49:54;;;;;;;1.90;0.90;;;11.80;99.90;;;;;;5040850;28;20225;-55
2023/11/02 08:52:22;;;;;;;0.57;0.57;;;12.00;99.90;;;;;;5039579;28;20218;-56
2023/11/02 08:54:49;;;;;;;1.07;0.87;;;12.10;99.90;;;;;;5043516;28;20591;-56
2023/11/02 08:57:15;;;;;;;1.63;0.83;;;12.20;99.90;;;;;;5043506;28;20212;-56
2023/11/02 08:59:42;;;;;;;1.10;0.90;;;12.30;99.90;;;;;;5041539;28;20668;-56
2023/11/02 09:02:10;;;;;;;3.83;0.90;;;12.20;99.90;;;;;;5040123;28;20223;-56
2023/11/02 09:04:37;;;;;;;1.40;0.80;;;12.20;99.90;;;;;;5041869;28;20210;-56
2023/11/02 09:07:04;;;;;;;1.80;1.20;;;12.20;99.90;;;;;;5044049;28;20585;-56
2023/11/02 09:09:31;;;;;;;1.13;0.80;;;12.40;99.90;;;;;;5043215;28;20208;-55
2023/11/02 09:11:58;;;;;;;1.63;0.80;;;12.50;99.90;;;;;;5040568;28;20202;-55
2023/11/02 09:14:24;;;;;;;1.07;0.87;;;12.50;99.90;;;;;;5040272;28;20230;-55
2023/11/02 09:16:52;;;;;;;3.17;1.17;;;12.60;99.90;;;;;;5043536;28;20681;-56
2023/11/02 09:19:20;;;;;;;2.13;1.37;;;12.50;99.90;;;;;;5044007;28;20205;-56
2023/11/02 09:21:48;;;;;;;1.57;1.00;;;12.60;99.90;;;;;;5041082;28;20229;-56
2023/11/02 09:24:15;;;;;;;1.40;1.00;;;12.70;99.90;;;;;;5040804;28;20222;-56
2023/11/02 09:26:42;;;;;;;1.40;0.90;;;12.80;99.90;;;;;;5042214;28;20199;-56
2023/11/02 09:29:09;;;;;;;1.40;1.10;;;12.90;99.90;;;;;;5043318;28;20668;-56
2023/11/02 09:31:36;;;;;;;2.20;0.80;;;13.00;99.90;;;;;;5041968;28;20210;-56
2023/11/02 09:34:02;;;;;;;1.83;0.80;;;13.10;99.90;;;;;;5040016;28;20284;-56
2023/11/02 09:36:30;;;;;;;2.97;2.33;;;13.00;99.90;;;;;;5039888;28;20672;-56
2023/11/02 09:38:59;;;;;;;2.10;1.27;;;12.80;99.90;;;;;;5043146;28;20676;-56
2023/11/02 09:41:26;;;;;;;1.77;0.90;;;12.60;99.90;;;;;;5043052;28;20208;-56
2023/11/02 09:43:53;;;;;;;2.00;1.00;;;12.40;99.90;;;;;;5039504;28;20222;-56
2023/11/02 09:46:20;;;;;;;4.80;1.50;;;12.50;99.90;;;;;;5040038;28;20213;-55
2023/11/02 09:48:46;;;;;;;2.97;1.70;;;12.60;99.90;;;;;;5041864;28;20213;-55
2023/11/02 09:51:13;;;;;;;2.83;1.63;;;12.70;99.90;;;;;;5042751;28;20198;-55
2023/11/02 09:53:42;;;;;;;3.57;2.10;;;12.90;99.90;;;;;;5041105;28;20218;-55
2023/11/02 09:56:09;;;;;;;7.27;3.00;;;13.10;99.90;;;;;;5039553;28;20212;-55
2023/11/02 09:58:36;;;;;;;3.23;1.70;;;13.30;99.90;;;;;;5040187;28;20202;-55
2023/11/02 10:01:04;;;;;;;3.97;1.00;;;13.50;99.90;;;;;;5042504;28;20663;-55
2023/11/02 10:03:30;;;;;;;1.43;1.10;;;13.50;99.90;;;;;;5042143;28;20600;-56
2023/11/02 10:05:58;;;;;;;3.87;1.10;;;13.60;99.90;;;;;;5039578;28;20203;-56
2023/11/02 10:08:25;;;;;;;0.80;0.80;;;13.60;99.90;;;;;;5039226;28;20206;-56
2023/11/02 10:11:09;;;;;;;1.73;0.80;;;13.70;99.90;;;;;;5042456;28;20706;-56
2023/11/02 10:13:36;;;;;;;2.17;0.67;;;13.80;99.90;;;;;;5042022;28;20226;-54
2023/11/02 10:16:03;;;;;;;1.23;0.70;;;13.90;99.90;;;;;;5039804;28;20608;-55
2023/11/02 10:18:30;;;;;;;1.03;0.77;;;14.10;99.90;;;;;;5039798;28;20594;-55
2023/11/02 10:20:57;;;;;;;1.10;0.60;;;14.20;99.90;;;;;;5043192;28;20201;-55
2023/11/02 10:23:24;;;;;;;1.23;0.70;;;14.30;99.90;;;;;;5042562;28;20227;-55
2023/11/02 10:25:50;;;;;;;1.63;0.70;;;14.40;99.90;;;;;;5039837;28;20691;-55
2023/11/02 10:28:19;;;;;;;1.63;0.60;;;14.40;99.90;;;;;;5039347;28;20206;-55
2023/11/02 10:30:46;;;;;;;1.13;0.57;;;14.50;99.90;;;;;;5041266;28;20230;-55
2023/11/02 10:33:14;;;;;;;1.83;0.63;;;14.60;99.90;;;;;;5042109;28;20228;-55
2023/11/02 10:35:42;;;;;;;1.23;0.60;;;14.70;99.90;;;;;;5040548;28;20578;-54
2023/11/02 10:38:09;;;;;;;1.03;0.60;;;14.60;99.90;;;;;;5039360;28;20202;-55
2023/11/02 10:40:43;;;;;;;1.13;0.80;;;14.60;99.90;;;;;;5039931;28;20245;-54
2023/11/02 10:43:16;;;;;;;2.37;0.90;;;14.60;99.90;;;;;;5042034;28;20229;-54
2023/11/02 10:45:48;;;;;;;1.40;0.70;;;14.60;99.90;;;;;;5041103;28;20267;-54
2023/11/02 10:48:17;;;;;;;1.60;0.60;;;14.50;99.90;;;;;;5039042;28;20198;-54
2023/11/02 10:50:45;;;;;;;0.50;0.50;;;14.50;99.90;;;;;;5040856;28;20238;-56
2023/11/02 10:53:17;;;;;;;1.33;0.60;;;14.70;99.90;;;;;;5042459;28;20350;-57
2023/11/02 10:55:46;;;;;;;1.10;1.00;;;14.70;99.90;;;;;;5040265;28;20679;-55
2023/11/02 10:58:14;;;;;;;1.33;0.77;;;14.70;99.90;;;;;;5038771;28;20581;-55
2023/11/02 11:00:42;;;;;;;0.67;0.63;;;14.70;99.90;;;;;;5040252;28;20224;-54
2023/11/02 11:03:10;;;;;;;1.37;0.47;;;14.70;99.90;;;;;;5042041;28;20229;-55
2023/11/02 11:05:39;;;;;;;1.27;0.40;;;14.70;99.90;;;;;;5041138;28;20208;-54
2023/11/02 11:08:07;;;;;;;1.87;0.70;;;14.70;99.90;;;;;;5038767;28;20213;-54
2023/11/02 11:10:34;;;;;;;0.53;0.50;;;14.70;99.90;;;;;;5039412;28;20297;-54
2023/11/02 11:13:01;;;;;;;1.90;0.60;;;14.60;99.90;;;;;;5041707;28;20233;-55
2023/11/02 11:15:29;;;;;;;0.53;0.50;;;14.60;99.90;;;;;;5044334;28;20206;-54
2023/11/02 11:17:58;;;;;;;0.30;0.23;;;14.60;99.90;;;;;;5042515;28;20213;-55
2023/11/02 11:20:27;;;;;;;0.77;0.50;;;14.60;99.90;;;;;;5043088;28;20202;-56
2023/11/02 11:22:54;;;;;;;2.30;0.60;;;14.60;99.90;;;;;;5045295;28;20305;-55
2023/11/02 11:25:21;;;;;;;1.53;0.97;;;14.60;99.90;;;;;;5045853;28;20202;-55
2023/11/02 11:27:48;;;;;;;1.90;0.40;;;14.70;99.90;;;;;;5043340;28;20814;-54
2023/11/02 11:30:45;;;;;;;0.70;0.43;;;14.70;99.90;;;;;;5042336;28;20206;-56
2023/11/02 11:33:48;;;;;;;1.23;0.70;;;14.60;99.90;;;;;;4980431;28;20227;-54
2023/11/02 11:36:24;;;;;;;1.27;0.90;;;14.50;99.90;;;;;;5036515;28;20213;-54
2023/11/02 11:38:51;;;;;;;1.40;0.73;;;14.50;99.90;;;;;;5044843;28;20214;-53
2023/11/02 11:41:44;;;;;;;1.00;0.37;;;14.60;99.90;;;;;;5044955;28;20198;-53
2023/11/02 11:44:18;;;;;;;0.60;0.40;;;14.70;99.90;;;;;;5035820;28;20266;-53
2023/11/02 11:46:46;;;;;;;0.87;0.40;;;14.60;99.90;;;;;;5046221;28;20648;-53
2023/11/02 11:49:47;;;;;;;1.43;0.80;;;14.50;99.90;;;;;;5047196;28;20297;-54
2023/11/02 11:52:25;;;;;;;1.50;0.43;;;14.50;99.90;;;;;;5030307;28;20202;-55
2023/11/02 11:54:52;;;;;;;1.63;0.30;;;14.50;99.90;;;;;;5051480;28;20233;-56
2023/11/02 11:57:59;;;;;;;1.03;0.33;;;14.40;99.90;;;;;;5043552;28;20218;-54
2023/11/02 12:00:27;;;;;;;0.40;0.40;;;14.40;99.90;;;;;;5034248;28;20372;-55
2023/11/02 12:02:57;;;;;;;1.10;0.67;;;14.40;99.90;;;;;;5042548;28;20233;-55
2023/11/02 12:05:53;;;;;;;1.37;0.53;;;14.40;99.90;;;;;;5042246;28;20202;-55
2023/11/02 12:08:22;;;;;;;1.07;0.60;;;14.50;99.90;;;;;;5036919;28;20203;-55
2023/11/02 12:10:51;;;;;;;0.77;0.40;;;14.50;99.90;;;;;;5043740;28;20243;-54
2023/11/02 12:13:18;;;;;;;2.10;0.80;;;14.40;99.90;;;;;;5044516;28;20304;-53
2023/11/02 12:15:57;;;;;;;0.60;0.40;;;14.40;99.90;;;;;;5043208;28;20205;-55
2023/11/02 12:18:31;;;;;;;0.70;0.50;;;14.40;99.90;;;;;;5041492;28;20206;-54
2023/11/02 12:21:00;;;;;;;1.27;0.40;;;14.50;99.90;;;;;;5033091;28;20282;-54
2023/11/02 12:23:38;;;;;;;1.27;0.50;;;14.50;99.90;;;;;;5040932;28;20695;-54
2023/11/02 12:26:07;;;;;;;1.00;0.57;;;14.50;99.90;;;;;;5033134;28;20281;-54
2023/11/02 12:28:45;;;;;;;1.27;0.60;;;14.50;99.90;;;;;;5041063;28;20286;-56
2023/11/02 12:31:13;;;;;;;0.63;0.60;;;14.50;99.90;;;;;;5044368;28;20205;-54
2023/11/02 12:33:40;;;;;;;1.73;0.70;;;14.50;99.90;;;;;;5043648;28;20218;-54
2023/11/02 12:36:08;;;;;;;2.70;0.60;;;14.50;99.90;;;;;;5040921;28;20256;-55
2023/11/02 12:38:37;;;;;;;1.27;0.60;;;14.40;99.90;;;;;;5040690;28;20240;-55
2023/11/02 12:41:05;;;;;;;0.97;0.40;;;14.40;99.90;;;;;;5044476;28;20589;-53
2023/11/02 12:43:36;;;;;;;2.77;0.50;;;14.30;99.90;;;;;;5044084;28;20225;-55
2023/11/02 12:46:06;;;;;;;0.70;0.50;;;14.30;99.90;;;;;;5033428;28;20206;-57
2023/11/02 12:48:36;;;;;;;1.73;0.40;;;14.20;99.90;;;;;;5041020;28;20206;-54
2023/11/02 12:51:18;;;;;;;0.53;0.37;;;14.20;99.90;;;;;;5033631;28;20282;-56
2023/11/02 12:53:47;;;;;;;2.30;0.80;;;14.10;99.90;;;;;;5042305;28;20313;-56
2023/11/02 12:56:21;;;;;;;1.67;0.63;;;14.10;99.90;;;;;;5044736;28;20201;-54
2023/11/02 12:58:49;;;;;;;1.33;0.60;;;14.10;99.90;;;;;;5042128;28;20235;-53
2023/11/02 13:01:16;;;;;;;1.30;0.60;;;14.20;99.90;;;;;;5040934;28;20209;-53
2023/11/02 13:03:58;;;;;;;0.53;0.30;;;14.10;99.90;;;;;;5041393;28;20276;-56
2023/11/02 13:06:25;;;;;;;1.27;0.77;;;14.10;99.90;;;;;;5044122;28;20260;-54